Time;durP1;ratioP1;P1;durP2;ratioP2;P2;SDS_P1;SDS_P2;PMS_P1;PMS_P2;Temp;Humidity;BMP_temperature;BMP_pressure;BME280_temperature;BME280_humidity;BME280_pressure;Samples;Min_cycle;Max_cycle;Signal;HPM_P1;HPM_P2
2023/10/05 00:04:40;;;;;;;3.17;1.52;;;;;;;;;;10393283;28;20317;-81
2023/10/05 00:09:41;;;;;;;3.35;1.48;;;;;;;;;;10371945;28;20307;-80
2023/10/05 00:14:44;;;;;;;4.28;1.60;;;;;;;;;;10399441;28;20704;-79
2023/10/05 00:19:46;;;;;;;2.95;1.67;;;;;;;;;;10391018;28;20357;-80
2023/10/05 00:24:49;;;;;;;6.85;2.22;;;;;;;;;;10409431;28;20727;-80
2023/10/05 00:29:56;;;;;;;3.55;1.98;;;;;;;;;;10381109;28;20297;-79
2023/10/05 00:35:14;;;;;;;3.78;1.73;;;;;;;;;;10391127;28;20211;-81
2023/10/05 00:41:16;;;;;;;2.08;1.73;;;;;;;;;;10411187;28;20763;-80
2023/10/05 00:45:46;;;;;;;2.20;1.48;;;;;;;;;;10370241;28;20211;-79
2023/10/05 00:50:48;;;;;;;1.73;1.63;;;;;;;;;;10412397;28;20208;-80
2023/10/05 00:55:52;;;;;;;9.48;1.75;;;;;;;;;;10410618;28;20231;-79
2023/10/05 01:00:55;;;;;;;3.85;1.55;;;;;;;;;;10380512;28;20211;-80
2023/10/05 01:06:12;;;;;;;4.40;1.50;;;;;;;;;;10413350;28;20215;-80
2023/10/05 01:11:15;;;;;;;2.65;1.70;;;;;;;;;;10388621;28;20242;-80
2023/10/05 01:16:19;;;;;;;3.33;1.10;;;;;;;;;;10370339;28;20223;-79
2023/10/05 01:21:24;;;;;;;6.30;2.17;;;;;;;;;;10116345;28;20342;-78
2023/10/05 01:26:25;;;;;;;2.80;1.65;;;;;;;;;;9667034;28;20235;-78
2023/10/05 01:31:27;;;;;;;4.55;1.67;;;;;;;;;;9708511;28;20215;-78
2023/10/05 01:36:28;;;;;;;4.43;2.00;;;;;;;;;;9672447;28;20371;-78
2023/10/05 01:41:30;;;;;;;3.15;1.90;;;;;;;;;;9729259;28;20321;-79
2023/10/05 01:46:32;;;;;;;2.88;1.83;;;;;;;;;;9689597;28;20277;-76
2023/10/05 01:51:33;;;;;;;8.32;1.55;;;;;;;;;;9678625;28;20219;-76
2023/10/05 01:56:34;;;;;;;2.83;1.63;;;;;;;;;;9689211;28;20222;-75
2023/10/05 02:01:39;;;;;;;2.58;2.15;;;;;;;;;;9650585;28;21452;-74
2023/10/05 02:06:42;;;;;;;3.58;1.63;;;;;;;;;;9681148;28;20226;-75
2023/10/05 02:11:44;;;;;;;2.25;1.35;;;;;;;;;;9703367;28;20227;-78
2023/10/05 02:16:49;;;;;;;2.67;1.30;;;;;;;;;;9684749;28;20227;-76
2023/10/05 02:21:54;;;;;;;3.10;1.63;;;;;;;;;;9664302;28;20309;-78
2023/10/05 02:37:07;;;;;;;4.45;2.28;;;;;;;;;;9682071;28;20227;-75
2023/10/05 02:42:15;;;;;;;2.08;1.75;;;;;;;;;;9673610;28;21828;-76
2023/10/05 02:47:22;;;;;;;6.35;1.70;;;;;;;;;;9682000;28;21600;-77
2023/10/05 02:52:25;;;;;;;3.13;1.60;;;;;;;;;;9676728;28;20342;-77
2023/10/05 02:57:26;;;;;;;2.60;1.73;;;;;;;;;;9679032;28;20345;-76
2023/10/05 03:02:28;;;;;;;3.97;1.50;;;;;;;;;;9665581;28;21683;-76
2023/10/05 03:07:30;;;;;;;2.65;1.80;;;;;;;;;;9737768;28;20214;-78
2023/10/05 03:12:33;;;;;;;5.47;1.90;;;;;;;;;;10379696;28;20200;-78
2023/10/05 03:17:39;;;;;;;7.80;2.05;;;;;;;;;;10384505;28;20212;-79
2023/10/05 03:22:40;;;;;;;6.07;1.90;;;;;;;;;;10374846;28;20220;-78
2023/10/05 03:27:41;;;;;;;5.10;1.70;;;;;;;;;;10393023;28;20253;-80
2023/10/05 03:32:43;;;;;;;7.65;1.90;;;;;;;;;;10377622;28;20210;-79
2023/10/05 03:37:45;;;;;;;8.50;1.70;;;;;;;;;;10381997;28;20242;-79
2023/10/05 03:42:46;;;;;;;2.60;2.17;;;;;;;;;;10371425;28;20219;-78
2023/10/05 03:47:53;;;;;;;3.85;1.70;;;;;;;;;;10386973;28;20772;-79
2023/10/05 03:52:54;;;;;;;3.03;1.58;;;;;;;;;;10394444;28;20224;-80
2023/10/05 03:57:57;;;;;;;2.45;2.00;;;;;;;;;;10369646;28;20251;-79
2023/10/05 04:02:59;;;;;;;2.22;2.00;;;;;;;;;;10371989;28;20688;-79
2023/10/05 04:08:14;;;;;;;6.35;1.73;;;;;;;;;;10385706;28;20219;-79
2023/10/05 04:13:17;;;;;;;7.32;2.10;;;;;;;;;;10367646;28;20214;-81
2023/10/05 04:18:20;;;;;;;3.05;2.08;;;;;;;;;;10372987;28;20214;-79
2023/10/05 04:23:25;;;;;;;3.25;2.40;;;;;;;;;;10394409;28;20238;-78
2023/10/05 04:28:31;;;;;;;4.97;2.00;;;;;;;;;;10407216;28;20233;-80
2023/10/05 04:33:33;;;;;;;2.25;1.95;;;;;;;;;;10386104;28;20218;-80
2023/10/05 04:38:34;;;;;;;3.47;2.97;;;;;;;;;;10392585;28;20238;-80
2023/10/05 04:43:38;;;;;;;2.30;2.20;;;;;;;;;;10380841;28;20223;-77
2023/10/05 04:48:39;;;;;;;5.70;2.70;;;;;;;;;;10380877;28;20220;-77
2023/10/05 04:53:42;;;;;;;7.97;2.28;;;;;;;;;;10395592;28;20224;-77
2023/10/05 04:59:37;;;;;;;4.75;2.17;;;;;;;;;;10397371;28;20323;-76
2023/10/05 05:04:27;;;;;;;4.97;1.83;;;;;;;;;;10379674;28;20219;-76
2023/10/05 05:09:39;;;;;;;3.50;1.83;;;;;;;;;;10391390;28;20222;-78
2023/10/05 05:14:44;;;;;;;6.60;2.03;;;;;;;;;;10373111;28;20221;-76
2023/10/05 05:19:46;;;;;;;3.17;2.30;;;;;;;;;;10342668;28;20220;-75
2023/10/05 05:24:50;;;;;;;2.38;2.20;;;;;;;;;;9673350;28;20643;-75
2023/10/05 05:29:54;;;;;;;2.97;2.05;;;;;;;;;;9605347;28;21096;-75
2023/10/05 05:34:55;;;;;;;2.25;1.80;;;;;;;;;;9636697;28;20212;-77
2023/10/05 05:39:57;;;;;;;2.65;1.98;;;;;;;;;;9649353;28;20822;-75
2023/10/05 05:45:03;;;;;;;3.85;1.52;;;;;;;;;;9608734;28;22406;-76
2023/10/05 05:50:07;;;;;;;3.55;1.70;;;;;;;;;;9665202;28;21885;-77
2023/10/05 05:55:13;;;;;;;4.60;1.67;;;;;;;;;;9655695;28;20692;-76
2023/10/05 06:00:17;;;;;;;2.47;1.02;;;;;;;;;;9636059;28;20626;-78
2023/10/05 06:05:22;;;;;;;1.80;1.30;;;;;;;;;;9622789;28;21266;-78
2023/10/05 06:10:28;;;;;;;2.38;1.23;;;;;;;;;;9610145;28;21629;-78
2023/10/05 06:15:29;;;;;;;3.35;1.33;;;;;;;;;;9601634;28;20354;-78
2023/10/05 06:20:31;;;;;;;2.15;1.05;;;;;;;;;;9611116;28;21181;-76
2023/10/05 06:25:32;;;;;;;1.13;1.10;;;;;;;;;;9606630;28;20239;-78
2023/10/05 06:30:35;;;;;;;1.17;1.13;;;;;;;;;;9626768;28;23360;-77
2023/10/05 06:35:36;;;;;;;6.20;1.25;;;;;;;;;;9630830;28;21557;-76
2023/10/05 06:40:37;;;;;;;2.40;1.33;;;;;;;;;;9623223;28;20211;-77
2023/10/05 06:45:43;;;;;;;1.52;1.00;;;;;;;;;;9626691;28;20219;-77
2023/10/05 06:50:44;;;;;;;0.90;0.90;;;;;;;;;;9640324;28;20223;-74
2023/10/05 06:55:45;;;;;;;3.08;0.80;;;;;;;;;;9624416;28;21170;-75
2023/10/05 07:00:46;;;;;;;1.20;1.10;;;;;;;;;;9624914;28;22534;-75
2023/10/05 07:05:48;;;;;;;1.20;1.10;;;;;;;;;;10038353;28;20220;-78
2023/10/05 07:10:49;;;;;;;4.53;1.25;;;;;;;;;;10367867;28;20225;-79
2023/10/05 07:15:50;;;;;;;3.33;1.42;;;;;;;;;;10378590;28;20222;-77
2023/10/05 07:20:51;;;;;;;4.00;1.77;;;;;;;;;;10388038;28;20219;-78
2023/10/05 07:25:52;;;;;;;4.30;1.75;;;;;;;;;;10371013;28;20223;-77
2023/10/05 07:30:56;;;;;;;3.97;1.63;;;;;;;;;;10389789;28;20306;-77
2023/10/05 07:35:57;;;;;;;3.60;1.92;;;;;;;;;;10397727;28;20219;-79
2023/10/05 07:41:03;;;;;;;5.07;1.48;;;;;;;;;;10407803;28;20776;-77
2023/10/05 07:46:06;;;;;;;2.25;1.23;;;;;;;;;;10394546;28;20223;-78
2023/10/05 07:51:07;;;;;;;4.50;1.00;;;;;;;;;;10395517;28;20253;-77
2023/10/05 07:56:08;;;;;;;1.45;1.13;;;;;;;;;;10377940;28;20223;-77
2023/10/05 08:01:10;;;;;;;1.33;0.93;;;;;;;;;;10373144;28;20261;-78
2023/10/05 08:06:15;;;;;;;2.15;1.10;;;;;;;;;;10386504;28;20223;-78
2023/10/05 08:11:16;;;;;;;2.17;1.40;;;;;;;;;;10377269;28;20230;-78
2023/10/05 08:16:17;;;;;;;3.83;1.20;;;;;;;;;;10361097;28;20223;-76
2023/10/05 08:21:18;;;;;;;1.45;1.13;;;;;;;;;;10357877;28;20302;-78
2023/10/05 08:26:19;;;;;;;5.93;1.08;;;;;;;;;;10398141;28;20223;-78
2023/10/05 08:31:23;;;;;;;1.73;1.30;;;;;;;;;;10387254;28;20339;-79
2023/10/05 08:36:25;;;;;;;2.58;1.10;;;;;;;;;;10381613;28;20211;-80
2023/10/05 08:41:31;;;;;;;1.30;1.17;;;;;;;;;;10364256;28;20215;-80
2023/10/05 08:46:35;;;;;;;1.92;1.02;;;;;;;;;;10402396;28;20210;-80
2023/10/05 08:51:39;;;;;;;1.52;1.13;;;;;;;;;;10396312;28;20285;-81
2023/10/05 08:56:41;;;;;;;2.22;0.90;;;;;;;;;;10391089;28;20230;-79
2023/10/05 09:01:42;;;;;;;4.25;1.55;;;;;;;;;;10405799;28;20221;-79
2023/10/05 09:06:49;;;;;;;3.53;1.67;;;;;;;;;;9922924;28;21271;-78
2023/10/05 09:11:50;;;;;;;2.97;1.95;;;;;;;;;;9648476;28;22302;-79
2023/10/05 09:16:58;;;;;;;2.58;1.77;;;;;;;;;;9671592;28;21127;-80
2023/10/05 09:27:13;;;;;;;2.00;2.00;;;;;;;;;;9660374;28;20317;-78
2023/10/05 09:32:22;;;;;;;5.03;2.03;;;;;;;;;;9665434;28;22501;-79
2023/10/05 09:37:27;;;;;;;4.00;1.73;;;;;;;;;;9624694;28;20223;-77
2023/10/05 09:42:28;;;;;;;1.95;1.75;;;;;;;;;;9680678;28;22038;-78
2023/10/05 09:47:33;;;;;;;1.58;1.58;;;;;;;;;;9641487;28;20240;-78
2023/10/05 09:52:43;;;;;;;1.98;1.88;;;;;;;;;;9659179;28;21192;-78
2023/10/05 09:57:51;;;;;;;2.92;2.13;;;;;;;;;;9653226;28;21927;-80
2023/10/05 10:02:56;;;;;;;2.85;1.90;;;;;;;;;;9665946;28;21302;-80
2023/10/05 10:07:59;;;;;;;2.92;1.67;;;;;;;;;;9669035;28;21654;-79
2023/10/05 10:13:00;;;;;;;2.47;1.60;;;;;;;;;;9663531;28;21548;-80
2023/10/05 10:23:36;;;;;;;1.58;1.52;;;;;;;;;;9662158;28;21357;-80
2023/10/05 10:33:55;;;;;;;5.35;1.30;;;;;;;;;;9673708;28;21186;-78
2023/10/05 10:39:00;;;;;;;1.98;1.50;;;;;;;;;;9614548;28;21100;-80
2023/10/05 10:44:01;;;;;;;7.05;1.70;;;;;;;;;;9630503;28;21020;-79
2023/10/05 10:49:07;;;;;;;1.60;1.50;;;;;;;;;;9623383;28;21159;-79
2023/10/05 10:54:14;;;;;;;3.00;1.55;;;;;;;;;;9636714;28;20215;-79
2023/10/05 10:59:20;;;;;;;1.75;1.65;;;;;;;;;;9656177;28;21949;-85
2023/10/05 11:04:32;;;;;;;4.28;1.70;;;;;;;;;;10338170;28;20288;-81
2023/10/05 11:09:46;;;;;;;1.77;1.65;;;;;;;;;;10321161;28;20232;-80
2023/10/05 11:14:47;;;;;;;2.53;1.83;;;;;;;;;;10335819;28;20282;-82
2023/10/05 11:19:49;;;;;;;2.17;1.77;;;;;;;;;;10347888;28;20220;-82
2023/10/05 11:25:00;;;;;;;5.25;2.25;;;;;;;;;;10318637;28;20223;-81
2023/10/05 11:30:01;;;;;;;4.07;2.00;;;;;;;;;;10372945;28;20215;-81
2023/10/05 11:35:07;;;;;;;2.35;1.42;;;;;;;;;;10364584;28;20298;-84
2023/10/05 11:40:23;;;;;;;4.68;1.88;;;;;;;;;;10383663;28;20305;-80
2023/10/05 11:45:24;;;;;;;2.35;1.50;;;;;;;;;;10356288;28;20200;-81
2023/10/05 11:50:35;;;;;;;7.85;2.03;;;;;;;;;;10333548;28;20214;-80
2023/10/05 11:55:36;;;;;;;1.65;1.35;;;;;;;;;;10348722;28;20675;-80
2023/10/05 12:00:37;;;;;;;3.03;1.42;;;;;;;;;;10298818;28;20211;-80
2023/10/05 12:05:39;;;;;;;4.60;1.00;;;;;;;;;;10325503;28;20351;-80
2023/10/05 12:10:40;;;;;;;1.25;1.20;;;;;;;;;;10305144;28;20670;-81
2023/10/05 12:15:41;;;;;;;1.50;1.40;;;;;;;;;;10317258;28;20215;-81
2023/10/05 12:20:42;;;;;;;5.97;1.30;;;;;;;;;;10108031;28;20226;-78
2023/10/05 12:25:47;;;;;;;1.42;1.38;;;;;;;;;;9520198;28;21122;-79
2023/10/05 12:30:48;;;;;;;2.20;1.30;;;;;;;;;;9579042;28;21317;-77
2023/10/05 12:35:52;;;;;;;3.95;1.30;;;;;;;;;;9579161;28;20317;-78
2023/10/05 12:40:54;;;;;;;2.35;1.45;;;;;;;;;;9525722;28;21055;-78
2023/10/05 12:45:56;;;;;;;1.58;1.48;;;;;;;;;;9584590;28;20934;-78
2023/10/05 12:50:57;;;;;;;2.47;1.23;;;;;;;;;;9581281;28;21605;-80
2023/10/05 12:55:59;;;;;;;1.58;1.38;;;;;;;;;;9580702;28;21065;-80
2023/10/05 13:01:07;;;;;;;1.25;1.15;;;;;;;;;;9547728;28;21397;-78
2023/10/05 13:06:10;;;;;;;2.95;1.50;;;;;;;;;;9550922;28;21295;-79
2023/10/05 13:11:12;;;;;;;2.30;0.75;;;;;;;;;;9574823;28;20265;-78
2023/10/05 13:16:21;;;;;;;2.80;1.10;;;;;;;;;;9589124;28;21452;-76
2023/10/05 13:21:22;;;;;;;1.33;1.23;;;;;;;;;;9560877;28;22157;-77
2023/10/05 13:26:26;;;;;;;0.70;0.70;;;;;;;;;;9569064;28;21768;-79
2023/10/05 13:31:27;;;;;;;3.85;0.98;;;;;;;;;;9582066;28;21544;-81
2023/10/05 13:36:30;;;;;;;3.38;1.10;;;;;;;;;;9583817;28;21463;-78
2023/10/05 13:41:35;;;;;;;2.05;1.02;;;;;;;;;;9567417;28;21534;-78
2023/10/05 13:46:42;;;;;;;2.92;1.00;;;;;;;;;;9588227;28;21343;-77
2023/10/05 13:51:44;;;;;;;0.70;0.70;;;;;;;;;;9574211;28;21765;-78
2023/10/05 13:56:48;;;;;;;2.97;0.88;;;;;;;;;;9617061;28;20472;-76
2023/10/05 14:01:52;;;;;;;0.85;0.63;;;;;;;;;;9648404;28;20211;-80
2023/10/05 14:06:56;;;;;;;0.70;0.70;;;;;;;;;;9693778;28;20325;-79
2023/10/05 14:11:58;;;;;;;0.63;0.63;;;;;;;;;;10343064;28;20262;-80
2023/10/05 14:17:06;;;;;;;4.10;1.17;;;;;;;;;;10343345;28;20658;-83
2023/10/05 14:22:09;;;;;;;2.97;0.98;;;;;;;;;;10346772;28;20270;-81
2023/10/05 14:27:10;;;;;;;3.60;1.20;;;;;;;;;;10353642;28;20250;-78
2023/10/05 14:32:11;;;;;;;2.15;1.15;;;;;;;;;;10346638;28;20613;-79
2023/10/05 14:37:13;;;;;;;2.58;1.15;;;;;;;;;;10385020;28;20215;-80
2023/10/05 14:42:17;;;;;;;0.88;0.88;;;;;;;;;;10371642;28;20219;-79
2023/10/05 14:47:19;;;;;;;1.35;0.77;;;;;;;;;;10369747;28;20219;-80
2023/10/05 14:52:20;;;;;;;4.57;0.80;;;;;;;;;;10370181;28;20223;-81
2023/10/05 14:57:21;;;;;;;0.93;0.93;;;;;;;;;;10349723;28;20787;-79
2023/10/05 15:02:23;;;;;;;1.13;0.88;;;;;;;;;;10383505;28;20211;-80
2023/10/05 15:07:24;;;;;;;1.30;1.00;;;;;;;;;;10397890;28;20271;-80
2023/10/05 15:12:25;;;;;;;2.47;1.38;;;;;;;;;;10398704;28;20211;-80
2023/10/05 15:17:28;;;;;;;6.75;1.30;;;;;;;;;;10387019;28;20206;-81
2023/10/05 15:22:29;;;;;;;1.75;1.50;;;;;;;;;;10370831;28;20203;-78
2023/10/05 15:27:33;;;;;;;1.88;1.52;;;;;;;;;;10357405;28;20254;-78
2023/10/05 15:32:34;;;;;;;2.05;0.55;;;;;;;;;;10361294;28;20270;-78
2023/10/05 15:37:38;;;;;;;1.88;1.63;;;;;;;;;;10376207;28;20317;-77
2023/10/05 15:42:41;;;;;;;6.35;5.78;;;;;;;;;;10352448;28;20323;-80
2023/10/05 15:47:47;;;;;;;2.60;2.20;;;;;;;;;;10368649;28;20316;-78
2023/10/05 15:52:59;;;;;;;1.60;0.80;;;;;;;;;;10356332;28;20212;-79
2023/10/05 15:58:06;;;;;;;0.80;0.80;;;;;;;;;;10389956;28;20219;-79
2023/10/05 16:03:10;;;;;;;1.30;0.93;;;;;;;;;;10372433;28;20216;-78
2023/10/05 16:08:12;;;;;;;1.65;0.50;;;;;;;;;;10381449;28;20230;-82
2023/10/05 16:13:15;;;;;;;0.52;0.40;;;;;;;;;;10346277;28;20223;-78
2023/10/05 16:18:17;;;;;;;1.38;0.50;;;;;;;;;;10212915;28;20853;-78
2023/10/05 16:23:18;;;;;;;0.47;0.47;;;;;;;;;;9677956;28;20708;-77
2023/10/05 16:28:19;;;;;;;2.35;1.58;;;;;;;;;;9662464;28;21218;-76
2023/10/05 16:33:20;;;;;;;0.88;0.60;;;;;;;;;;9693301;28;20962;-77
2023/10/05 16:38:24;;;;;;;0.45;0.45;;;;;;;;;;9689301;28;20223;-75
2023/10/05 16:43:25;;;;;;;0.60;0.60;;;;;;;;;;9678471;28;20267;-76
2023/10/05 16:48:27;;;;;;;0.50;0.50;;;;;;;;;;9701354;28;20978;-75
2023/10/05 16:53:28;;;;;;;1.60;0.80;;;;;;;;;;9749743;28;20215;-74
2023/10/05 16:58:29;;;;;;;0.77;0.77;;;;;;;;;;9743718;28;20223;-75
2023/10/05 17:03:31;;;;;;;1.30;0.93;;;;;;;;;;9763852;28;21666;-75
2023/10/05 17:08:32;;;;;;;0.70;0.70;;;;;;;;;;9695352;28;20219;-75
2023/10/05 17:13:34;;;;;;;1.00;1.00;;;;;;;;;;9711362;28;20223;-75
2023/10/05 17:18:35;;;;;;;1.08;1.08;;;;;;;;;;9702454;28;21973;-79
2023/10/05 17:23:36;;;;;;;1.33;0.93;;;;;;;;;;9732229;28;21811;-79
2023/10/05 17:28:38;;;;;;;1.40;1.30;;;;;;;;;;9739375;28;20884;-77
2023/10/05 17:33:40;;;;;;;1.08;1.00;;;;;;;;;;9715407;28;20219;-79
2023/10/05 17:38:41;;;;;;;0.50;0.50;;;;;;;;;;9717977;28;20215;-76
2023/10/05 17:43:42;;;;;;;1.55;0.55;;;;;;;;;;9693633;28;21724;-77
2023/10/05 17:48:43;;;;;;;0.30;0.30;;;;;;;;;;9695905;28;20227;-75
2023/10/05 17:53:45;;;;;;;1.95;0.30;;;;;;;;;;9683015;28;20226;-76
2023/10/05 17:58:46;;;;;;;0.60;0.30;;;;;;;;;;9688663;28;20223;-76
2023/10/05 18:03:47;;;;;;;0.30;0.30;;;;;;;;;;9873935;28;20207;-80
2023/10/05 18:08:48;;;;;;;2.10;0.40;;;;;;;;;;10379837;28;20226;-77
2023/10/05 18:13:49;;;;;;;0.50;0.50;;;;;;;;;;10391260;28;20222;-79
2023/10/05 18:18:50;;;;;;;1.40;0.40;;;;;;;;;;10396578;28;20215;-78
2023/10/05 18:23:52;;;;;;;0.50;0.50;;;;;;;;;;10397046;28;20250;-77
2023/10/05 18:28:53;;;;;;;0.80;0.80;;;;;;;;;;10357182;28;22176;-78
2023/10/05 18:33:54;;;;;;;0.88;0.88;;;;;;;;;;10337184;28;20270;-77
2023/10/05 18:38:56;;;;;;;1.35;1.25;;;;;;;;;;10311786;28;20219;-78
2023/10/05 18:43:57;;;;;;;1.55;1.17;;;;;;;;;;10333671;28;20266;-78
2023/10/05 18:48:58;;;;;;;3.10;1.75;;;;;;;;;;10328957;28;20247;-79
2023/10/05 18:53:59;;;;;;;1.70;1.60;;;;;;;;;;10351418;28;20244;-80
2023/10/05 18:59:01;;;;;;;1.92;1.83;;;;;;;;;;10353266;28;20227;-79
2023/10/05 19:04:02;;;;;;;2.13;2.10;;;;;;;;;;10323543;28;20235;-78
2023/10/05 19:09:03;;;;;;;4.55;2.28;;;;;;;;;;10341619;28;20243;-79
2023/10/05 19:14:05;;;;;;;6.20;2.78;;;;;;;;;;10335126;28;20220;-79
2023/10/05 19:19:06;;;;;;;3.10;2.83;;;;;;;;;;10334682;28;20215;-78
2023/10/05 19:24:08;;;;;;;5.60;3.13;;;;;;;;;;10333407;28;21024;-78
2023/10/05 19:29:09;;;;;;;3.60;3.40;;;;;;;;;;10354081;28;20701;-78
2023/10/05 19:34:10;;;;;;;7.53;3.90;;;;;;;;;;10367925;28;20701;-77
2023/10/05 19:39:11;;;;;;;4.05;3.70;;;;;;;;;;10362112;28;20218;-79
2023/10/05 19:44:13;;;;;;;4.25;3.85;;;;;;;;;;10392968;28;20615;-78
2023/10/05 19:49:14;;;;;;;5.85;4.88;;;;;;;;;;10388263;28;20301;-79
2023/10/05 19:54:17;;;;;;;8.70;5.20;;;;;;;;;;10399750;28;20207;-78
2023/10/05 19:59:19;;;;;;;6.07;5.32;;;;;;;;;;10410121;28;20243;-78
2023/10/05 20:04:20;;;;;;;7.22;5.50;;;;;;;;;;10411415;28;20215;-77
2023/10/05 20:09:24;;;;;;;7.40;5.63;;;;;;;;;;10104772;28;20395;-76
2023/10/05 20:14:25;;;;;;;12.90;6.32;;;;;;;;;;9665542;28;21544;-77
2023/10/05 20:19:26;;;;;;;7.68;7.00;;;;;;;;;;9642679;28;21276;-75
2023/10/05 20:24:27;;;;;;;8.40;7.05;;;;;;;;;;9623544;28;20342;-76
2023/10/05 20:29:30;;;;;;;6.53;5.93;;;;;;;;;;9629961;28;20282;-77
2023/10/05 20:34:31;;;;;;;6.90;6.30;;;;;;;;;;9618298;28;21367;-76
2023/10/05 20:39:32;;;;;;;11.07;7.05;;;;;;;;;;9643139;28;21570;-76
2023/10/05 20:44:34;;;;;;;13.77;7.25;;;;;;;;;;9689700;28;20219;-76
2023/10/05 20:49:37;;;;;;;10.73;8.30;;;;;;;;;;9696504;28;20317;-74
2023/10/05 20:54:39;;;;;;;14.60;9.32;;;;;;;;;;9706415;28;21129;-76
2023/10/05 20:59:40;;;;;;;13.23;9.38;;;;;;;;;;9719889;28;21607;-75
2023/10/05 21:04:41;;;;;;;12.65;8.93;;;;;;;;;;9717501;28;20337;-76
2023/10/05 21:09:43;;;;;;;11.25;8.98;;;;;;;;;;9711661;28;20226;-77
2023/10/05 21:14:44;;;;;;;12.75;8.50;;;;;;;;;;9684343;28;22675;-76
2023/10/05 21:19:45;;;;;;;12.38;9.57;;;;;;;;;;9723252;28;20335;-77
2023/10/05 21:24:46;;;;;;;12.15;8.50;;;;;;;;;;9694100;28;20265;-77
2023/10/05 21:29:47;;;;;;;9.80;8.80;;;;;;;;;;9696136;28;20377;-78
2023/10/05 21:34:48;;;;;;;18.20;9.00;;;;;;;;;;9720871;28;20362;-76
2023/10/05 21:39:53;;;;;;;12.73;9.23;;;;;;;;;;9706496;28;20317;-76
2023/10/05 21:44:55;;;;;;;15.38;9.38;;;;;;;;;;9700908;28;21761;-76
2023/10/05 21:49:56;;;;;;;13.75;9.63;;;;;;;;;;9685780;28;20358;-76
2023/10/05 21:54:57;;;;;;;15.38;9.00;;;;;;;;;;9716539;28;20215;-77
2023/10/05 21:59:58;;;;;;;10.13;8.52;;;;;;;;;;9909038;28;20310;-78
2023/10/05 22:04:59;;;;;;;15.07;8.82;;;;;;;;;;10378412;28;20210;-78
2023/10/05 22:10:00;;;;;;;11.13;8.70;;;;;;;;;;10374718;28;20694;-78
2023/10/05 22:15:01;;;;;;;12.90;7.80;;;;;;;;;;10391582;28;20222;-79
2023/10/05 22:20:02;;;;;;;9.70;8.00;;;;;;;;;;10417211;28;20218;-79
2023/10/05 22:25:04;;;;;;;7.55;6.80;;;;;;;;;;10396120;28;20210;-78
2023/10/05 22:30:06;;;;;;;12.07;8.57;;;;;;;;;;10405183;28;20229;-78
2023/10/05 22:35:07;;;;;;;14.43;8.23;;;;;;;;;;10399692;28;20223;-78
2023/10/05 22:40:12;;;;;;;11.68;7.80;;;;;;;;;;10370568;28;20726;-78
2023/10/05 22:45:13;;;;;;;10.02;7.28;;;;;;;;;;10404119;28;22200;-78
2023/10/05 22:50:14;;;;;;;8.50;7.63;;;;;;;;;;10391669;28;20186;-78
2023/10/05 22:55:15;;;;;;;9.65;6.88;;;;;;;;;;10407455;28;20182;-78
2023/10/05 23:00:18;;;;;;;7.38;6.63;;;;;;;;;;10391911;28;20681;-78
2023/10/05 23:05:19;;;;;;;8.13;6.35;;;;;;;;;;10409887;28;20844;-77
2023/10/05 23:10:20;;;;;;;6.50;5.90;;;;;;;;;;10397867;28;20191;-77
2023/10/05 23:15:21;;;;;;;8.55;6.30;;;;;;;;;;10386088;28;20185;-78
2023/10/05 23:20:25;;;;;;;5.30;4.90;;;;;;;;;;10396638;28;20230;-78
2023/10/05 23:25:26;;;;;;;4.97;4.68;;;;;;;;;;10406902;28;20231;-79
2023/10/05 23:30:27;;;;;;;5.53;5.05;;;;;;;;;;10382189;28;20224;-79
2023/10/05 23:35:29;;;;;;;6.05;5.45;;;;;;;;;;10372756;28;20233;-79
2023/10/05 23:40:30;;;;;;;12.57;6.30;;;;;;;;;;10382484;28;20305;-79
2023/10/05 23:45:31;;;;;;;8.02;6.63;;;;;;;;;;10404547;28;20652;-79
2023/10/05 23:50:36;;;;;;;11.18;7.13;;;;;;;;;;10407326;28;20330;-79
2023/10/05 23:55:43;;;;;;;10.07;8.52;;;;;;;;;;10404401;28;20237;-79
